Terminal Aerodrome Forecast
Issued by NWS Charleston, WV

Current Version | Previous Version | Graphics & Text | Print | Product List | Glossary On
Versions: 1 2 3 4 5 6 7 8 9 10 11 12 13 14 15 16 17 18 19 20 21 22 23 24 25
000
FTUS41 KRLX 170145 AAA
TAFEKN
TAF AMD
KEKN 170145Z 1702/1724 00000KT 1/2SM FG VV001
     FM171400 00000KT 4SM BR BKN003
     FM171500 00000KT P6SM SKC
     FM171700 VRB03KT P6SM FEW040=

USA.gov is the U.S. government's official web portal to all federal, state and local government web resources and services.